ADDS METAR Data INFO
IDs: Format: Raw Decoded Include TAF

Data at: 2114 UTC 22 Oct 2017

PASO 222053Z AUTO 19004KT 10SM SCT044 03/M04 A2953 RMK AO2 SLP001 60000 T00331044 51029 TSNO
PASO 221953Z AUTO 17004KT 10SM CLR 02/M03 A2950 RMK AO2 SLP991 T00171028 TSNO
PASO 221853Z AUTO 18007KT 10SM FEW044 M01/M03 A2947 RMK AO2 SNB02E29 SLP981 P0000 T10111033 TSNO
PASO 221753Z AUTO 18004KT 10SM SCT050 BKN065 BKN085 M02/M04 A2945 RMK AO2 SLP971 60000 I6000 T10221039 11022 21056 51027 TSNO
PASO 221653Z AUTO 00000KT 10SM FEW070 M02/M04 A2942 RMK AO2 SNB1558E07 SLP963 P0000 T10221044 TSNO
PASO 221553Z AUTO 18003KT 10SM BKN047 OVC055 M03/M04 A2939 RMK AO2 SLP953 T10331044 TSNO
PASO 221453Z AUTO 00000KT 10SM BKN055 M05/M06 A2937 RMK AO2 SLP944 I3000 T10501061 53013 TSNO
PASO 221353Z AUTO 00000KT 10SM FEW065 M05/M07 A2935 RMK AO2 SLP939 T10501067 TSNO
PASO 221253Z AUTO 00000KT 10SM CLR M06/M07 A2934 RMK AO2 SLP935 I1000 T10561067 TSNO
PASO 221153Z AUTO 00000KT 10SM CLR M06/M07 A2933 RMK AO2 SLP931 T10561067 11022 21056 52013 TSNO
PASO 221053Z AUTO 00000KT 10SM CLR M06/M07 A2931 RMK AO2 SLP927 T10561067 TSNO
PASO 220953Z AUTO 00000KT 10SM CLR M04/M06 A2930 RMK AO2 SLP922 T10441061 TSNO
PASO 220853Z AUTO 00000KT 10SM BKN033 M04/M06 A2929 RMK AO2 SLP918 T10391056 400111039 51011 TSNO
PASO 220753Z AUTO 00000KT 10SM BKN032 M04/M06 A2928 RMK AO2 SLP916 T10391056 TSNO
PASO 220653Z AUTO 00000KT 10SM CLR M03/M06 A2926 RMK AO2 SLP910 T10331056 TSNO
PASO 220553Z AUTO 00000KT 10SM SCT037 OVC050 M03/M06 A2925 RMK AO2 SLP906 T10281056 10011 21033 53008 TSNO
PASO 220453Z AUTO 00000KT 10SM CLR M03/M06 A2924 RMK AO2 SLP903 T10281056 TSNO
PASO 220353Z AUTO 00000KT 10SM SCT032 M03/M06 A2923 RMK AO2 SLP899 T10281061 TSNO
PASO 220253Z AUTO 00000KT 10SM CLR M02/M06 A2923 RMK AO2 SLP898 T10221056 55000 TSNO
PASO 220153Z AUTO 00000KT 10SM CLR M01/M06 A2923 RMK AO2 SLP897 T10111056 TSNO
PASO 220117Z AUTO 03003KT 10SM FEW025 M01/M06 A2923 RMK AO2 T10061056 TSNO
PASO 220053Z AUTO 03004KT 10SM OVC024 00/M06 A2923 RMK AO2 SLP897 T00001056 TSNO
PASO 212353Z AUTO 00000KT 10SM OVC024 01/M05 A2923 RMK AO2 SLP899 60000 T00061050 10011 21011 58005 TSNO
PASO 212253Z AUTO 01006KT 10SM OVC024 01/M04 A2924 RMK AO2 SNE12 SLP900 P0000 T00111039 TSNO
PASO 212153Z AUTO 36008KT 9SM -SN OVC023 01/M04 A2925 RMK AO2 SNB2054 SLP904 P0000 T00111044 TSNO
PASO 212053Z AUTO 02008KT 10SM OVC022 00/M04 A2924 RMK AO2 SLP903 60000 T00001044 50000 TSNO
PASO 211953Z AUTO 02006KT 10SM OVC023 M01/M05 A2925 RMK AO2 SNB04E45 SLP905 P0000 T10061050 TSNO
PASO 211908Z AUTO VRB05KT 10SM -SN BKN024 OVC070 M01/M05 A2925 RMK AO2 SNB04 P0000 T10111050 TSNO
PASO 211853Z AUTO 01005KT 10SM SCT026 OVC070 M01/M05 A2925 RMK AO2 SLP904 T10111050 TSNO
PASO 211753Z AUTO VRB05KT 10SM OVC065 M01/M05 A2924 RMK AO2 SLP903 60000 T10111050 11006 21011 58000 TSNO
PASO 211653Z AUTO 01006KT 10SM OVC070 M01/M06 A2925 RMK AO2 SNE1554B35E45 SLP905 P0000 T10111056 TSNO
PASO 211553Z AUTO 35004KT 9SM -SN OVC070 M01/M07 A2925 RMK AO2 SNB46 SLP904 P0000 T10111067 TSNO
PASO 211453Z AUTO 02007KT 10SM OVC065 M01/M07 A2925 RMK AO2 SNB01E02 SLP904 P0000 60000 T10111067 56004 TSNO
PASO 211353Z AUTO VRB05KT 9SM OVC065 M01/M07 A2925 RMK AO2 SNB14E50 SLP905 P0000 T10111067 TSNO
PASO 211253Z AUTO VRB04KT 10SM OVC065 M01/M08 A2925 RMK AO2 SLP906 T10111083 TSNO
PASO 211153Z AUTO 03007KT 360V080 10SM OVC065 M01/M08 A2926 RMK AO2 SLP908 60000 T10111078 11011 21033 56004 TSNO
PASO 211053Z AUTO 00000KT 10SM OVC065 M03/M08 A2926 RMK AO2 SLP908 T10331078 TSNO
PASO 210953Z AUTO 00000KT 10SM CLR M02/M09 A2926 RMK AO2 SLP910 T10171094 TSNO